Time;durP1;ratioP1;P1;durP2;ratioP2;P2;SDS_P1;SDS_P2;PMS_P1;PMS_P2;Temp;Humidity;BMP_temperature;BMP_pressure;BME280_temperature;BME280_humidity;BME280_pressure;Samples;Min_cycle;Max_cycle;Signal;HPM_P1;HPM_P2
2022/05/31 00:00:18;;;;;;;2.00;1.90;;;15.60;99.90;;;;;;5092751;28;20571;-49
2022/05/31 00:02:46;;;;;;;1.73;1.63;;;15.60;99.90;;;;;;5091150;28;20224;-47
2022/05/31 00:05:14;;;;;;;1.53;1.47;;;15.60;99.90;;;;;;5073953;28;20213;-50
2022/05/31 00:07:43;;;;;;;1.57;1.47;;;15.50;99.90;;;;;;5086397;28;20659;-51
2022/05/31 00:10:13;;;;;;;1.20;1.20;;;15.50;99.90;;;;;;5092260;28;20659;-50
2022/05/31 00:12:41;;;;;;;1.63;1.53;;;15.50;99.90;;;;;;5091296;28;20205;-50
2022/05/31 00:15:09;;;;;;;1.50;1.03;;;15.40;99.90;;;;;;5092118;28;20219;-49
2022/05/31 00:17:37;;;;;;;2.00;1.23;;;15.40;99.90;;;;;;5090668;28;20196;-51
2022/05/31 00:20:05;;;;;;;1.00;1.00;;;15.40;99.90;;;;;;5092110;28;20192;-49
2022/05/31 00:22:35;;;;;;;1.10;1.10;;;15.30;99.90;;;;;;5093150;28;20199;-46
2022/05/31 00:25:05;;;;;;;1.10;1.10;;;15.30;99.90;;;;;;5078378;28;20279;-50
2022/05/31 00:27:33;;;;;;;1.00;1.00;;;15.30;99.90;;;;;;5091519;28;20652;-42
2022/05/31 00:30:00;;;;;;;0.73;0.73;;;15.30;99.90;;;;;;5091575;28;20559;-44
2022/05/31 00:32:30;;;;;;;0.80;0.80;;;15.20;99.90;;;;;;5091765;28;20235;-44
2022/05/31 00:35:00;;;;;;;0.63;0.63;;;15.20;99.90;;;;;;5073302;28;20204;-42
2022/05/31 00:37:27;;;;;;;0.60;0.60;;;15.20;99.90;;;;;;5090084;28;20210;-44
2022/05/31 00:39:54;;;;;;;0.60;0.60;;;15.20;99.90;;;;;;5092115;28;20250;-44
2022/05/31 00:42:23;;;;;;;0.60;0.60;;;15.20;99.90;;;;;;5091121;28;20200;-43
2022/05/31 00:44:51;;;;;;;0.50;0.50;;;15.20;99.90;;;;;;5091293;28;20193;-42
2022/05/31 00:47:23;;;;;;;0.60;0.60;;;15.20;99.90;;;;;;5088796;28;20231;-44
2022/05/31 00:49:55;;;;;;;0.60;0.60;;;15.20;99.90;;;;;;5091533;28;20220;-47
2022/05/31 00:52:25;;;;;;;0.60;0.60;;;15.20;99.90;;;;;;5089644;28;20250;-44
2022/05/31 00:54:55;;;;;;;0.70;0.70;;;15.10;99.90;;;;;;5091353;28;20683;-41
2022/05/31 00:57:24;;;;;;;0.70;0.70;;;15.10;99.90;;;;;;5090247;28;20204;-40
2022/05/31 00:59:54;;;;;;;0.67;0.67;;;15.10;99.90;;;;;;5072566;28;20553;-43
2022/05/31 01:02:22;;;;;;;0.60;0.60;;;15.10;99.90;;;;;;5090821;28;20239;-42
2022/05/31 01:04:53;;;;;;;0.60;0.60;;;15.00;99.90;;;;;;5091048;28;20196;-43
2022/05/31 01:07:20;;;;;;;0.67;0.67;;;15.00;99.90;;;;;;5086310;28;20242;-44
2022/05/31 01:09:48;;;;;;;0.77;0.77;;;15.00;99.90;;;;;;5083451;28;20228;-44
2022/05/31 01:12:36;;;;;;;0.60;0.60;;;14.90;99.90;;;;;;5089173;28;20269;-46
2022/05/31 01:15:43;;;;;;;0.57;0.57;;;15.00;99.90;;;;;;5088812;28;20287;-42
2022/05/31 01:18:28;;;;;;;0.50;0.50;;;14.90;99.90;;;;;;5091059;28;20211;-48
2022/05/31 01:21:17;;;;;;;0.70;0.70;;;14.90;99.90;;;;;;5059609;28;20839;-43
2022/05/31 01:24:14;;;;;;;1.17;0.67;;;14.90;99.90;;;;;;5072124;28;20284;-43
2022/05/31 01:26:48;;;;;;;1.07;0.80;;;14.90;99.90;;;;;;5088855;28;20196;-42
2022/05/31 01:29:22;;;;;;;0.60;0.60;;;14.90;99.90;;;;;;5091425;28;20287;-43
2022/05/31 01:31:55;;;;;;;0.70;0.70;;;14.90;99.90;;;;;;5089332;28;20635;-41
2022/05/31 01:34:28;;;;;;;0.60;0.60;;;14.90;99.90;;;;;;5090281;28;20504;-44
2022/05/31 01:36:58;;;;;;;0.70;0.70;;;15.00;99.90;;;;;;5089046;28;20265;-45
2022/05/31 01:39:31;;;;;;;0.60;0.60;;;15.00;99.90;;;;;;5090419;28;20664;-42
2022/05/31 01:42:03;;;;;;;0.70;0.70;;;15.00;99.90;;;;;;5071846;28;20627;-46
2022/05/31 01:44:35;;;;;;;0.97;0.97;;;15.00;99.90;;;;;;5090619;28;20552;-40
2022/05/31 01:47:04;;;;;;;1.00;1.00;;;15.00;99.90;;;;;;5089240;28;20275;-46
2022/05/31 01:49:35;;;;;;;1.30;1.20;;;15.00;99.90;;;;;;5090349;28;20238;-43
2022/05/31 01:52:04;;;;;;;0.80;0.80;;;15.00;99.90;;;;;;5089345;28;20661;-44
2022/05/31 01:54:33;;;;;;;0.90;0.90;;;15.00;99.90;;;;;;5088686;28;20197;-46
2022/05/31 01:57:02;;;;;;;0.90;0.90;;;15.00;99.90;;;;;;5084110;28;20276;-44
2022/05/31 01:59:36;;;;;;;0.80;0.80;;;15.00;99.90;;;;;;5082442;28;20219;-43
2022/05/31 02:02:06;;;;;;;0.87;0.87;;;14.90;99.90;;;;;;5071639;28;20266;-43
2022/05/31 02:04:35;;;;;;;0.90;0.90;;;14.90;99.90;;;;;;5072626;28;20215;-43
2022/05/31 02:07:12;;;;;;;1.00;0.87;;;14.90;99.90;;;;;;5058645;28;20358;-43
2022/05/31 02:09:44;;;;;;;0.70;0.70;;;14.80;99.90;;;;;;5072027;28;20614;-43
2022/05/31 02:12:19;;;;;;;0.90;0.90;;;14.80;99.90;;;;;;5071295;28;20699;-46
2022/05/31 02:15:02;;;;;;;0.70;0.70;;;14.80;99.90;;;;;;5072323;28;20208;-41
2022/05/31 02:17:29;;;;;;;0.80;0.80;;;14.80;99.90;;;;;;5071609;28;20232;-43
2022/05/31 02:20:16;;;;;;;0.90;0.90;;;14.70;99.90;;;;;;5089453;28;20253;-47
2022/05/31 02:22:45;;;;;;;0.97;0.97;;;14.70;99.90;;;;;;5091365;28;20535;-46
2022/05/31 02:25:12;;;;;;;0.90;0.90;;;14.70;99.90;;;;;;5071448;28;20635;-44
2022/05/31 02:27:39;;;;;;;1.20;1.10;;;14.70;99.90;;;;;;5061752;28;20200;-45
2022/05/31 02:30:07;;;;;;;0.73;0.73;;;14.70;99.90;;;;;;5089676;28;20200;-43
2022/05/31 02:32:36;;;;;;;0.80;0.70;;;14.70;99.90;;;;;;5070350;28;20302;-48
2022/05/31 02:35:05;;;;;;;0.80;0.80;;;14.70;99.90;;;;;;5089501;28;20676;-44
2022/05/31 02:37:33;;;;;;;0.70;0.70;;;14.70;99.90;;;;;;5088117;28;20208;-45
2022/05/31 02:40:01;;;;;;;0.70;0.70;;;14.70;99.90;;;;;;5071287;28;20545;-44
2022/05/31 02:42:29;;;;;;;0.70;0.70;;;14.70;99.90;;;;;;5070634;28;20223;-41
2022/05/31 02:44:56;;;;;;;0.80;0.80;;;14.70;99.90;;;;;;5089832;28;20282;-43
2022/05/31 02:47:23;;;;;;;0.67;0.67;;;14.60;99.90;;;;;;5089043;28;20197;-51
2022/05/31 02:49:51;;;;;;;0.90;0.90;;;14.60;99.90;;;;;;5089625;28;20199;-52
2022/05/31 02:52:18;;;;;;;0.63;0.63;;;14.60;99.90;;;;;;5069225;28;20327;-51
2022/05/31 02:54:46;;;;;;;0.80;0.80;;;14.60;99.90;;;;;;5089698;28;20207;-52
2022/05/31 02:57:20;;;;;;;0.77;0.77;;;14.60;99.90;;;;;;5088936;28;20223;-49
2022/05/31 03:00:08;;;;;;;1.03;1.03;;;14.60;99.90;;;;;;5089102;28;20215;-50
2022/05/31 03:02:50;;;;;;;1.03;1.03;;;14.60;99.90;;;;;;5085580;28;20224;-50
2022/05/31 03:05:36;;;;;;;0.80;0.80;;;14.50;99.90;;;;;;5089599;28;20221;-50
2022/05/31 03:08:25;;;;;;;0.60;0.60;;;14.50;99.90;;;;;;5063777;28;20193;-50
2022/05/31 03:11:21;;;;;;;0.60;0.60;;;14.50;99.90;;;;;;5068993;28;20207;-49
2022/05/31 03:13:55;;;;;;;1.00;0.90;;;14.60;99.90;;;;;;5089796;28;20205;-51
2022/05/31 03:16:24;;;;;;;0.93;0.93;;;14.60;99.90;;;;;;5088794;28;20209;-50
2022/05/31 03:18:56;;;;;;;0.90;0.90;;;14.60;99.90;;;;;;5082571;28;20253;-50
2022/05/31 03:21:30;;;;;;;0.70;0.70;;;14.60;99.90;;;;;;5086770;28;20204;-52
2022/05/31 03:24:01;;;;;;;0.80;0.80;;;14.60;99.90;;;;;;5091575;28;20195;-50
2022/05/31 03:26:32;;;;;;;0.73;0.73;;;14.60;99.90;;;;;;5088009;28;20196;-51
2022/05/31 03:29:03;;;;;;;0.90;0.90;;;14.60;99.90;;;;;;5088736;28;20195;-50
2022/05/31 03:31:31;;;;;;;1.20;1.10;;;14.60;99.90;;;;;;5088631;28;20667;-52
2022/05/31 03:33:59;;;;;;;0.97;0.97;;;14.60;99.90;;;;;;5089766;28;20208;-46
2022/05/31 03:36:26;;;;;;;0.73;0.73;;;14.60;99.90;;;;;;5086747;28;20722;-50
2022/05/31 03:39:04;;;;;;;0.90;0.90;;;14.50;99.90;;;;;;5070910;28;20224;-43
2022/05/31 03:41:33;;;;;;;0.70;0.70;;;14.50;99.90;;;;;;5069725;28;20212;-51
2022/05/31 03:44:02;;;;;;;0.60;0.60;;;14.50;99.90;;;;;;5089928;28;20231;-50
2022/05/31 03:46:56;;;;;;;0.63;0.63;;;14.60;99.90;;;;;;5059052;28;20212;-51
2022/05/31 03:49:45;;;;;;;0.47;0.47;;;14.60;99.90;;;;;;5086148;28;20612;-50
2022/05/31 03:52:15;;;;;;;0.70;0.70;;;14.60;99.90;;;;;;5068742;28;20220;-48
2022/05/31 03:54:44;;;;;;;1.30;0.60;;;14.60;99.90;;;;;;5067348;28;20216;-49
2022/05/31 03:57:15;;;;;;;0.73;0.73;;;14.60;99.90;;;;;;5088009;28;20248;-47
2022/05/31 03:59:44;;;;;;;0.70;0.70;;;14.70;99.90;;;;;;5074817;28;20607;-44
2022/05/31 04:02:11;;;;;;;0.87;0.87;;;14.70;99.90;;;;;;5091202;28;20625;-49
2022/05/31 04:04:41;;;;;;;0.70;0.70;;;14.70;99.90;;;;;;5092725;28;20647;-51
2022/05/31 04:07:09;;;;;;;0.97;0.90;;;14.70;99.90;;;;;;5090599;28;20736;-52
2022/05/31 04:09:37;;;;;;;0.70;0.70;;;14.70;99.90;;;;;;5074112;28;20253;-50
2022/05/31 04:12:09;;;;;;;0.70;0.70;;;14.70;99.90;;;;;;5073344;28;20267;-42
2022/05/31 04:15:07;;;;;;;0.70;0.70;;;14.70;99.90;;;;;;5006672;28;20207;-42
2022/05/31 04:17:35;;;;;;;0.67;0.67;;;14.70;99.90;;;;;;5069776;28;20204;-42
2022/05/31 04:20:02;;;;;;;0.70;0.70;;;14.70;99.90;;;;;;5092400;28;20203;-43
2022/05/31 04:22:29;;;;;;;0.60;0.60;;;14.70;99.90;;;;;;5074889;28;20686;-41
2022/05/31 04:25:11;;;;;;;0.70;0.70;;;14.80;99.90;;;;;;5073756;28;20235;-43
2022/05/31 04:27:57;;;;;;;0.90;0.90;;;14.80;99.90;;;;;;5091540;28;20215;-44
2022/05/31 04:30:46;;;;;;;2.00;0.80;;;14.70;99.90;;;;;;5083422;28;20206;-47
2022/05/31 04:33:31;;;;;;;1.63;1.30;;;14.70;99.90;;;;;;5091650;28;20338;-42
2022/05/31 04:36:00;;;;;;;1.47;1.37;;;14.70;99.90;;;;;;5072497;28;20214;-46
2022/05/31 04:38:28;;;;;;;1.07;1.07;;;14.70;99.90;;;;;;5072786;28;20212;-43
2022/05/31 04:40:59;;;;;;;0.90;0.90;;;14.70;99.80;;;;;;5073761;28;20204;-44
2022/05/31 04:43:45;;;;;;;1.10;1.10;;;14.80;99.90;;;;;;5091491;28;20299;-43
2022/05/31 04:46:20;;;;;;;1.47;1.37;;;14.80;99.90;;;;;;5072778;28;20290;-46
2022/05/31 04:48:53;;;;;;;1.17;1.17;;;14.80;99.90;;;;;;5074067;28;20195;-42
2022/05/31 04:51:20;;;;;;;4.97;1.80;;;14.80;99.90;;;;;;5071079;28;20443;-43
2022/05/31 04:53:55;;;;;;;1.43;1.33;;;14.80;99.90;;;;;;5073314;28;20655;-42
2022/05/31 04:56:32;;;;;;;1.00;1.00;;;14.90;99.80;;;;;;5070891;28;20210;-42
2022/05/31 04:59:06;;;;;;;1.00;1.00;;;14.90;99.80;;;;;;5073202;28;20193;-43
2022/05/31 05:01:35;;;;;;;1.10;1.10;;;14.90;99.70;;;;;;5072607;28;20263;-43
2022/05/31 05:04:08;;;;;;;1.20;1.00;;;14.90;99.80;;;;;;5073387;28;20212;-41
2022/05/31 05:06:45;;;;;;;1.00;1.00;;;14.80;99.70;;;;;;5066829;28;20196;-42
2022/05/31 05:09:13;;;;;;;1.03;1.03;;;14.90;99.70;;;;;;5067586;28;20211;-43
2022/05/31 05:11:58;;;;;;;0.90;0.90;;;14.90;99.70;;;;;;5071550;28;20200;-42
2022/05/31 05:14:32;;;;;;;1.80;1.30;;;14.90;99.70;;;;;;5073426;28;20219;-42
2022/05/31 05:17:04;;;;;;;1.50;1.40;;;14.90;99.50;;;;;;5072025;28;20213;-42
2022/05/31 05:19:37;;;;;;;1.77;1.30;;;15.00;99.50;;;;;;5072980;28;20552;-43
2022/05/31 05:22:05;;;;;;;1.60;1.50;;;15.00;99.40;;;;;;5089814;28;20214;-47
2022/05/31 05:24:32;;;;;;;1.00;1.00;;;15.00;99.40;;;;;;5074231;28;20211;-45
2022/05/31 05:27:28;;;;;;;1.57;1.30;;;15.00;99.30;;;;;;5073151;28;20538;-44
2022/05/31 05:33:30;;;;;;;1.00;1.00;;;15.00;99.30;;;;;;5089788;28;20244;-43
2022/05/31 05:36:18;;;;;;;1.67;1.30;;;15.00;99.30;;;;;;5037035;28;20645;-44
2022/05/31 05:38:47;;;;;;;1.50;1.40;;;15.00;99.30;;;;;;5072966;28;20219;-41
2022/05/31 05:41:31;;;;;;;1.33;1.23;;;15.00;99.20;;;;;;5089265;28;20219;-43
2022/05/31 05:44:17;;;;;;;1.30;1.30;;;15.10;99.30;;;;;;5091006;28;20200;-43
2022/05/31 05:46:44;;;;;;;1.40;1.30;;;15.10;99.30;;;;;;5071777;28;20223;-46
2022/05/31 05:49:12;;;;;;;1.40;1.30;;;15.10;99.40;;;;;;5090995;28;20208;-44
2022/05/31 05:51:40;;;;;;;1.33;1.33;;;15.10;99.40;;;;;;5069456;28;20200;-44
2022/05/31 05:54:28;;;;;;;1.50;1.40;;;15.10;99.40;;;;;;5058631;28;20244;-43
2022/05/31 05:57:24;;;;;;;1.37;1.30;;;15.10;99.50;;;;;;4998875;28;20219;-44
2022/05/31 06:00:21;;;;;;;1.70;1.60;;;15.20;99.50;;;;;;5017430;28;20306;-51
2022/05/31 06:03:03;;;;;;;2.50;1.50;;;15.20;99.50;;;;;;5087723;28;20279;-48
2022/05/31 06:05:49;;;;;;;2.13;2.03;;;15.20;99.40;;;;;;5061389;28;20201;-49
2022/05/31 06:08:20;;;;;;;1.87;1.77;;;15.20;99.40;;;;;;5088398;28;20299;-53
2022/05/31 06:10:56;;;;;;;1.70;1.60;;;15.20;99.40;;;;;;5083149;28;20212;-48
2022/05/31 06:13:26;;;;;;;1.80;1.70;;;15.30;99.40;;;;;;5069937;28;20780;-51
2022/05/31 06:15:57;;;;;;;1.37;1.30;;;15.30;99.40;;;;;;5071875;28;20218;-50
2022/05/31 06:18:30;;;;;;;1.40;1.30;;;15.30;99.40;;;;;;5070891;28;20219;-50
2022/05/31 06:21:02;;;;;;;2.03;1.87;;;15.40;99.30;;;;;;5088408;28;20250;-47
2022/05/31 06:23:29;;;;;;;1.30;1.30;;;15.40;99.20;;;;;;5090264;28;20188;-48
2022/05/31 06:25:59;;;;;;;1.40;1.30;;;15.50;99.20;;;;;;5069589;28;20751;-49
2022/05/31 06:28:38;;;;;;;1.43;1.33;;;15.50;99.10;;;;;;5058289;28;20211;-51
2022/05/31 06:31:05;;;;;;;1.30;1.30;;;15.60;99.10;;;;;;5082151;28;20205;-49
2022/05/31 06:33:33;;;;;;;1.63;1.53;;;15.60;99.10;;;;;;5070903;28;20740;-50
2022/05/31 06:36:07;;;;;;;1.87;1.60;;;15.60;99.30;;;;;;5069703;28;20269;-52
2022/05/31 06:38:35;;;;;;;1.57;1.47;;;15.60;99.40;;;;;;5059401;28;20616;-50
2022/05/31 06:41:02;;;;;;;1.27;1.27;;;15.60;99.30;;;;;;5087311;28;20204;-48
2022/05/31 06:43:47;;;;;;;1.50;1.40;;;15.60;99.30;;;;;;5088762;28;20600;-47
2022/05/31 06:46:23;;;;;;;2.27;2.17;;;15.70;99.30;;;;;;5085893;28;20196;-52
2022/05/31 06:49:09;;;;;;;1.43;1.33;;;15.70;99.40;;;;;;5089514;28;20743;-46
2022/05/31 06:57:46;;;;;;;1.77;1.63;;;15.80;99.40;;;;;;5087864;28;20215;-43
2022/05/31 07:00:27;;;;;;;1.63;1.53;;;15.90;99.50;;;;;;5070528;28;20219;-46
2022/05/31 07:02:56;;;;;;;1.40;1.30;;;15.90;99.40;;;;;;5070154;28;20586;-47
2022/05/31 07:05:25;;;;;;;2.00;1.87;;;16.00;99.40;;;;;;5069942;28;20679;-43
2022/05/31 07:07:55;;;;;;;3.03;1.53;;;16.10;99.30;;;;;;5065862;28;20223;-49
2022/05/31 07:10:55;;;;;;;1.73;1.40;;;16.10;99.20;;;;;;5041986;28;20216;-49
2022/05/31 07:13:40;;;;;;;1.27;1.17;;;16.10;99.10;;;;;;5088191;28;20682;-46
2022/05/31 07:16:26;;;;;;;2.13;1.33;;;16.20;99.20;;;;;;5084683;28;20198;-43
2022/05/31 07:19:12;;;;;;;1.93;1.37;;;16.20;99.20;;;;;;5083002;28;20677;-47
2022/05/31 07:21:43;;;;;;;1.33;1.10;;;16.30;99.10;;;;;;5065742;28;20602;-43
2022/05/31 07:24:12;;;;;;;1.23;1.13;;;16.30;98.90;;;;;;5072387;28;20607;-50
2022/05/31 07:26:55;;;;;;;1.37;1.33;;;16.30;98.80;;;;;;5064377;28;20242;-51
2022/05/31 07:29:22;;;;;;;1.60;1.50;;;16.30;98.70;;;;;;5071132;28;20200;-48
2022/05/31 07:31:50;;;;;;;1.30;1.30;;;16.30;98.70;;;;;;5068713;28;20200;-44
2022/05/31 07:34:19;;;;;;;1.20;1.20;;;16.30;98.60;;;;;;5067346;28;20451;-44
2022/05/31 07:36:47;;;;;;;1.33;1.23;;;16.30;98.60;;;;;;5071467;28;20694;-50
2022/05/31 07:39:18;;;;;;;2.20;1.20;;;16.30;98.60;;;;;;5093198;28;20204;-47
2022/05/31 07:41:49;;;;;;;1.60;1.50;;;16.30;98.60;;;;;;5072084;28;20748;-49
2022/05/31 07:44:18;;;;;;;1.40;1.30;;;16.40;98.40;;;;;;5073722;28;20695;-45
2022/05/31 07:46:46;;;;;;;1.20;1.20;;;16.40;98.20;;;;;;5073258;28;20201;-44
2022/05/31 07:49:14;;;;;;;1.40;1.30;;;16.50;98.10;;;;;;5073547;28;21392;-43
2022/05/31 07:51:56;;;;;;;2.20;1.40;;;16.50;97.90;;;;;;5072344;28;20200;-47
2022/05/31 07:54:24;;;;;;;1.70;1.60;;;16.60;97.70;;;;;;5092506;28;20749;-43
2022/05/31 07:58:30;;;;;;;1.43;1.33;;;16.60;97.40;;;;;;5085221;28;20207;-45
2022/05/31 08:00:24;;;;;;;1.53;1.30;;;16.70;97.30;;;;;;5068651;28;20565;-41
2022/05/31 08:02:55;;;;;;;1.40;1.30;;;16.80;97.20;;;;;;5069673;28;20540;-42
2022/05/31 08:05:22;;;;;;;1.23;1.20;;;16.80;97.20;;;;;;5091444;28;20261;-42
2022/05/31 08:07:49;;;;;;;2.23;1.63;;;16.90;97.00;;;;;;5086081;28;20192;-41
2022/05/31 08:10:20;;;;;;;1.33;1.20;;;16.90;96.40;;;;;;5092153;28;20196;-41
2022/05/31 08:12:47;;;;;;;1.30;1.30;;;16.80;96.20;;;;;;5091308;28;20305;-42
2022/05/31 08:15:14;;;;;;;1.00;1.00;;;16.80;96.10;;;;;;5092244;28;20724;-45
2022/05/31 08:17:43;;;;;;;1.73;1.33;;;16.80;96.20;;;;;;5071548;28;20197;-42
2022/05/31 08:20:11;;;;;;;1.50;1.40;;;16.80;96.00;;;;;;5091141;28;20197;-42
2022/05/31 08:22:38;;;;;;;1.17;1.10;;;16.80;95.70;;;;;;5089474;28;20201;-44
2022/05/31 08:25:06;;;;;;;1.00;1.00;;;16.80;95.40;;;;;;5088344;28;20227;-48
2022/05/31 08:27:36;;;;;;;0.90;0.90;;;16.80;95.00;;;;;;5083948;28;20548;-49
2022/05/31 08:30:05;;;;;;;0.80;0.80;;;16.80;94.90;;;;;;5089471;28;20624;-45
2022/05/31 08:32:34;;;;;;;0.80;0.80;;;16.90;94.90;;;;;;5091472;28;20304;-51
2022/05/31 08:35:01;;;;;;;0.80;0.80;;;16.90;95.20;;;;;;5090858;28;20210;-50
2022/05/31 08:37:30;;;;;;;1.10;1.00;;;16.90;94.80;;;;;;5089684;28;20618;-48
2022/05/31 08:39:58;;;;;;;1.20;1.20;;;17.00;94.70;;;;;;5090106;28;20201;-49
2022/05/31 08:42:35;;;;;;;0.90;0.90;;;17.00;94.10;;;;;;5090018;28;20198;-47
2022/05/31 08:45:12;;;;;;;0.70;0.70;;;17.10;94.20;;;;;;5091288;28;20273;-51
2022/05/31 08:47:45;;;;;;;0.80;0.80;;;17.20;94.10;;;;;;5072155;28;20211;-47
2022/05/31 08:53:24;;;;;;;0.60;0.60;;;17.40;93.60;;;;;;5087060;28;20204;-48
2022/05/31 08:58:44;;;;;;;1.90;0.80;;;17.60;93.00;;;;;;5071592;28;20186;-46
2022/05/31 09:01:17;;;;;;;0.57;0.57;;;17.70;92.50;;;;;;5088993;28;20623;-50
2022/05/31 09:03:48;;;;;;;1.60;0.95;;;17.80;92.20;;;;;;5090115;28;20231;-51
